Hovedside
METAR-TAF:

METAR-TAF

Lufthavner :

Seinäjoki lufthavn

Seinäjoki-Ilmajoki, Finland

breddegrad: 62-41-37N, lengdegrad: 022-49-55E, høyde over havet: 91 m

Gjeldene værobservasjon

Denne rapporten ble laget for 40 minutter siden, klokken 16:20 UTC
Vind 8 kt fra Nordvest, skiftende mellom Vest og Nord-nordvest
Temperatur 18°C
Luftfuktighet 49%
Trykk 1016 hPa
Sikt 10 km eller mer
ingen skyer under 1500 m og ingen bygeskyer

METAR: EFSI 241620Z AUTO 31008KT 280V340 CAVOK 18/07 Q1016

Tid: 20:00 (17:00 UTC)

Varsel

Denne rapporten ble laget for 2 timer og 29 minutter siden, klokken 14:31 UTC
Varsel gyldig fra 24. klokken 15 UTC til 24. klokken 24 UTC
Vind 9 kt fra Vest-nordvest
Sikt 10 km eller mer
ingen skyer under 1500 m og ingen bygeskyer

TAF: EFSI 241431Z 2415/2424 29009KT CAVOK

Værobservasjoner og værvarsel for over 4000 flyplasser (METAR- og TAF-rapporter).

Tilgjengelige stasjoner er representert av de røde og gule prikkene på kartet.

Hold musepekeren over prikken for å se navnet på stasjonen.

Klikk så for å se værobservasjoner og -varsler.

For å forandre kartet kan du klikke på den grønne knappen med svart kryss for å zoome inn, på den grønne knappen med strek for å zoome ut, eller på de grønne pilene for å se tilstøtende kart.


METAR-TAF: